| time (UTC) | temp C | wind direction | speed KPH | gust KPH | rain 1hr cm | rain 24hr cm | rain mn cm | humidity % | barometer mb |
| 20260510033054 | 8 | 0 | 0.0 | 0.0 | 0.00 | 0.86 | 0.86 | 89 | 1009.7 |
| 20260510031548 | 8 | 0 | 0.0 | 0.0 | 0.00 | 0.86 | 0.86 | 89 | 1009.8 |
| 20260510030049 | 8 | 0 | 0.0 | 0.0 | 0.00 | 0.86 | 0.86 | 89 | 1009.8 |
| 20260510024550 | 8 | 0 | 0.0 | 0.0 | 0.00 | 0.86 | 0.86 | 89 | 1009.7 |
| 20260510023047 | 9 | 0 | 0.0 | 0.0 | 0.00 | 0.86 | 0.86 | 89 | 1009.7 |
| 20260510021642 | 9 | 0 | 0.0 | 0.0 | 0.00 | 0.86 | 0.86 | 88 | 1009.8 |
| 20260510020058 | 9 | 0 | 0.0 | 0.0 | 0.00 | 0.86 | 0.86 | 88 | 1009.6 |
| 20260510014558 | 10 | 0 | 0.0 | 0.0 | 0.00 | 0.86 | 0.86 | 88 | 1009.8 |
| 20260510013053 | 10 | 0 | 0.0 | 0.0 | 0.00 | 0.86 | 0.86 | 87 | 1009.5 |
| 20260510011555 | 10 | 0 | 0.0 | 0.0 | 0.00 | 0.86 | 0.86 | 86 | 1009.4 |
| 20260510010100 | 11 | 0 | 0.0 | 0.0 | 0.00 | 0.86 | 0.86 | 86 | 1009.4 |
| 20260510004556 | 11 | 0 | 0.0 | 0.0 | 0.00 | 0.86 | 0.86 | 85 | 1009.1 |
| 20260510003054 | 12 | 0 | 0.0 | 0.0 | 0.00 | 0.86 | 0.86 | 85 | 1009.0 |
| 20260510001551 | 12 | 0 | 0.0 | 0.0 | 0.00 | 0.86 | 0.86 | 83 | 1008.9 |
| 20260510000052 | 12 | 0 | 0.0 | 0.0 | 0.00 | 0.86 | 0.86 | 82 | 1009.1 |
| 20260509234551 | 13 | 0 | 0.0 | 0.0 | 0.00 | 0.86 | 0.86 | 80 | 1008.7 |
| 20260509233051 | 13 | 0 | 0.0 | 3.2 | 0.00 | 0.86 | 0.86 | 79 | 1008.5 |
| 20260509231553 | 14 | 0 | 0.0 | 4.8 | 0.00 | 0.86 | 0.86 | 78 | 1008.5 |
| 20260509230049 | 14 | 207 | 1.6 | 3.2 | 0.00 | 0.86 | 0.86 | 77 | 1008.5 |
| 20260509224550 | 14 | 75 | 0.0 | 8.0 | 0.00 | 0.86 | 0.86 | 78 | 1008.2 |
| 20260509223054 | 14 | 335 | 1.6 | 4.8 | 0.00 | 0.86 | 0.86 | 79 | 1008.6 |
| 20260509221543 | 15 | 279 | 1.6 | 6.4 | 0.00 | 0.86 | 0.86 | 77 | 1008.5 |
| 20260509220052 | 15 | 320 | 1.6 | 9.7 | 0.00 | 0.86 | 0.86 | 79 | 1008.5 |
| 20260509214549 | 15 | 280 | 0.0 | 9.7 | 0.00 | 0.86 | 0.86 | 80 | 1008.7 |
| 20260509213108 | 13 | 210 | 0.0 | 16.1 | 0.00 | 0.86 | 0.86 | 83 | 1008.8 |
| 20260509211601 | 13 | 0 | 1.6 | 14.5 | 0.00 | 0.86 | 0.86 | 85 | 1009.0 |
| 20260509210053 | 12 | 220 | 3.2 | 8.0 | 0.00 | 0.86 | 0.86 | 87 | 1009.1 |
| 20260509204551 | 12 | 0 | 1.6 | 9.7 | 0.03 | 0.86 | 0.86 | 87 | 1009.3 |
| 20260509203055 | 12 | 0 | 1.6 | 6.4 | 0.05 | 0.86 | 0.86 | 87 | 1009.3 |
| 20260509201558 | 12 | 280 | 0.0 | 3.2 | 0.10 | 0.86 | 0.86 | 88 | 1009.2 |
| 20260509200055 | 12 | 0 | 0.0 | 4.8 | 0.15 | 0.86 | 0.86 | 88 | 1009.2 |
| 20260509194559 | 11 | 200 | 1.6 | 11.3 | 0.15 | 0.86 | 0.84 | 88 | 1009.6 |
| 20260509193045 | 11 | 0 | 1.6 | 9.7 | 0.18 | 0.84 | 0.81 | 87 | 1009.8 |
| 20260509191604 | 12 | 348 | 1.6 | 4.8 | 0.15 | 0.79 | 0.76 | 87 | 1010.0 |
| 20260509190047 | 12 | 336 | 0.0 | 6.4 | 0.18 | 0.74 | 0.71 | 87 | 1010.2 |
| 20260509184601 | 11 | 0 | 0.0 | 12.9 | 0.20 | 0.71 | 0.69 | 87 | 1010.3 |
| 20260509183055 | 12 | 123 | 0.0 | 4.8 | 0.18 | 0.66 | 0.64 | 87 | 1010.3 |
| 20260509181559 | 12 | 0 | 0.0 | 6.4 | 0.15 | 0.64 | 0.61 | 87 | 1010.4 |
| 20260509174552 | 12 | 0 | 0.0 | 3.2 | 0.08 | 0.51 | 0.48 | 86 | 1010.3 |
| 20260509173057 | 12 | 269 | 1.6 | 8.0 | 0.08 | 0.48 | 0.46 | 86 | 1010.2 |
| 20260509171552 | 12 | 255 | 1.6 | 8.0 | 0.10 | 0.48 | 0.46 | 87 | 1010.2 |
| 20260509170044 | 12 | 193 | 1.6 | 12.9 | 0.10 | 0.46 | 0.43 | 87 | 1010.2 |
| 20260509164547 | 12 | 0 | 0.0 | 3.2 | 0.08 | 0.46 | 0.41 | 87 | 1010.2 |
| 20260509163052 | 12 | 34 | 0.0 | 3.2 | 0.08 | 0.43 | 0.38 | 86 | 1010.4 |
| 20260509161557 | 12 | 0 | 0.0 | 4.8 | 0.03 | 0.38 | 0.33 | 85 | 1010.4 |
| 20260509160046 | 12 | 217 | 0.0 | 3.2 | 0.05 | 0.38 | 0.33 | 86 | 1010.4 |
| 20260509154548 | 12 | 0 | 0.0 | 3.2 | 0.05 | 0.38 | 0.33 | 86 | 1010.5 |
| 20260509153055 | 12 | 0 | 0.0 | 1.6 | 0.08 | 0.36 | 0.30 | 87 | 1010.6 |
| 20260509151548 | 12 | 0 | 0.0 | 1.6 | 0.10 | 0.36 | 0.30 | 88 | 1010.6 |
| 20260509150049 | 11 | 0 | 0.0 | 0.0 | 0.08 | 0.33 | 0.28 | 88 | 1010.7 |
| 20260509144550 | 11 | 0 | 0.0 | 1.6 | 0.10 | 0.33 | 0.28 | 88 | 1010.9 |
| 20260509143043 | 11 | 0 | 0.0 | 0.0 | 0.05 | 0.28 | 0.23 | 88 | 1011.2 |
| 20260509141554 | 11 | 0 | 0.0 | 1.6 | 0.08 | 0.25 | 0.20 | 88 | 1011.0 |
| 20260509134541 | 11 | 0 | 0.0 | 0.0 | 0.05 | 0.23 | 0.18 | 88 | 1010.8 |
| 20260509133046 | 11 | 0 | 0.0 | 0.0 | 0.05 | 0.20 | 0.15 | 89 | 1010.9 |
| 20260509131545 | 11 | 0 | 0.0 | 0.0 | 0.03 | 0.18 | 0.13 | 89 | 1010.7 |
| 20260509130044 | 10 | 0 | 0.0 | 1.6 | 0.03 | 0.18 | 0.13 | 89 | 1010.4 |
| 20260509124551 | 10 | 0 | 0.0 | 3.2 | 0.03 | 0.18 | 0.13 | 89 | 1010.4 |
| 20260509123042 | 10 | 0 | 0.0 | 3.2 | 0.00 | 0.15 | 0.10 | 90 | 1010.5 |
| 20260509121548 | 10 | 0 | 0.0 | 4.8 | 0.00 | 0.15 | 0.10 | 91 | 1010.6 |
| 20260509120046 | 10 | 0 | 0.0 | 3.2 | 0.00 | 0.15 | 0.10 | 91 | 1010.6 |
| 20260509114544 | 10 | 0 | 0.0 | 3.2 | 0.00 | 0.15 | 0.10 | 91 | 1010.8 |
| 20260509113044 | 9 | 0 | 0.0 | 3.2 | 0.00 | 0.15 | 0.10 | 91 | 1010.9 |
| 20260509111554 | 9 | 0 | 0.0 | 0.0 | 0.00 | 0.15 | 0.10 | 91 | 1011.0 |
| 20260509110048 | 9 | 0 | 0.0 | 0.0 | 0.00 | 0.15 | 0.10 | 91 | 1011.1 |
| 20260509104554 | 9 | 0 | 0.0 | 0.0 | 0.00 | 0.15 | 0.10 | 91 | 1010.8 |
| 20260509103104 | -17 | 0.0 | 0.0 | 0.00 | 0.15 | 0.10 | 1010.8 | ||
| 20260509101559 | -17 | 0.0 | 0.0 | 0.00 | 0.15 | 0.10 | 1011.1 | ||
| 20260509100051 | -17 | 0.0 | 0.0 | 0.00 | 0.15 | 0.10 | 1011.0 | ||
| 20260509094554 | -17 | 0.0 | 0.0 | 0.00 | 0.15 | 0.10 | 1010.8 | ||
| 20260509093051 | -17 | 0.0 | 0.0 | 0.00 | 0.15 | 0.10 | 1010.8 | ||
| 20260509091555 | -17 | 0.0 | 0.0 | 0.00 | 0.15 | 0.10 | 1010.9 | ||
| 20260509090058 | -17 | 0.0 | 0.0 | 0.00 | 0.15 | 0.10 | 1011.1 | ||
| 20260509084600 | -17 | 0.0 | 0.0 | 0.00 | 0.15 | 0.10 | 1011.4 | ||
| 20260509083107 | -17 | 0.0 | 0.0 | 0.00 | 0.15 | 0.10 | 1011.7 | ||
| 20260509081543 | -17 | 0.0 | 0.0 | 0.00 | 0.15 | 0.10 | 1011.7 | ||
| 20260509080051 | 9 | 0 | 0.0 | 0.0 | 0.00 | 0.15 | 0.10 | 90 | 1011.7 |
| 20260509074606 | 9 | 0 | 0.0 | 0.0 | 0.00 | 0.15 | 0.10 | 90 | 1011.5 |
| 20260509073101 | 9 | 0 | 0.0 | 0.0 | 0.00 | 0.15 | 0.10 | 90 | 1011.5 |
| 20260509071552 | 8 | 0 | 0.0 | 0.0 | 0.00 | 0.15 | 0.10 | 90 | 1011.5 |
| 20260509070055 | 9 | 0 | 0.0 | 3.2 | 0.03 | 0.15 | 0.10 | 90 | 1011.5 |
| 20260509064547 | 9 | 0 | 0.0 | 0.0 | 0.05 | 0.15 | 0.10 | 89 | 1011.8 |
| 20260509063057 | 9 | 0 | 0.0 | 0.0 | 0.08 | 0.15 | 0.10 | 89 | 1012.2 |
| 20260509061545 | 9 | 0 | 0.0 | 0.0 | 0.08 | 0.15 | 0.10 | 89 | 1012.7 |
| 20260509054543 | 9 | 0 | 0.0 | 0.0 | 0.03 | 0.15 | 0.05 | 89 | 1012.8 |
| 20260509053054 | 8 | 0 | 0.0 | 0.0 | 0.00 | 0.13 | 0.03 | 88 | 1012.2 |
| 20260509051548 | 8 | 0 | 0.0 | 3.2 | 0.00 | 0.13 | 0.03 | 88 | 1011.8 |
| 20260509050046 | 8 | 0 | 0.0 | 0.0 | 0.03 | 0.13 | 0.03 | 88 | 1011.7 |
| 20260509044551 | 8 | 0 | 0.0 | 0.0 | 0.03 | 0.20 | 0.03 | 88 | 1012.1 |
| 20260509043054 | 8 | 0 | 0.0 | 1.6 | 0.03 | 0.20 | 0.03 | 87 | 1012.0 |
| 20260509041546 | 8 | 202 | 0.0 | 6.4 | 0.03 | 0.20 | 0.03 | 87 | 1012.1 |
| 20260509040059 | 8 | 0 | 0.0 | 0.0 | 0.00 | 0.18 | 0.00 | 86 | 1012.2 |
| 20260509034544 | 8 | 0 | 0.0 | 0.0 | 0.00 | 0.20 | 0.18 | 86 | 1012.3 |